createdAt,value
2022-12-29T00:01:42.023Z,1.02
2022-12-29T00:04:14.669Z,1.10
2022-12-29T00:06:43.252Z,1.60
2022-12-29T00:09:11.787Z,0.82
2022-12-29T00:11:38.179Z,1.00
2022-12-29T00:14:26.187Z,1.00
2022-12-29T00:16:53.053Z,0.98
2022-12-29T00:19:38.018Z,0.80
2022-12-29T00:22:23.479Z,1.05
2022-12-29T00:25:08.424Z,1.48
2022-12-29T00:27:53.396Z,1.08
2022-12-29T00:30:41.212Z,0.77
2022-12-29T00:33:34.525Z,1.00
2022-12-29T00:36:17.373Z,0.73
2022-12-29T00:39:07.763Z,0.70
2022-12-29T00:41:52.899Z,0.70
2022-12-29T00:44:19.449Z,0.60
2022-12-29T00:46:46.194Z,0.70
2022-12-29T00:49:32.993Z,0.70
2022-12-29T00:52:00.858Z,0.60
2022-12-29T00:54:30.301Z,0.70
2022-12-29T00:56:56.841Z,0.60
2022-12-29T00:59:25.026Z,0.88
2022-12-29T01:01:54.900Z,0.60
2022-12-29T01:04:23.601Z,0.70
2022-12-29T01:09:36.993Z,0.50
2022-12-29T01:12:05.197Z,0.40
2022-12-29T01:14:32.105Z,0.63
2022-12-29T01:16:58.607Z,0.30
2022-12-29T01:19:25.497Z,0.43
2022-12-29T01:21:52.658Z,0.60
2022-12-29T01:24:20.800Z,0.40
2022-12-29T01:26:47.740Z,0.40
2022-12-29T01:29:14.580Z,0.80
2022-12-29T01:31:41.193Z,0.40
2022-12-29T01:34:07.704Z,0.50
2022-12-29T01:36:34.372Z,0.40
2022-12-29T01:39:00.912Z,0.35
2022-12-29T01:41:27.786Z,0.40
2022-12-29T01:43:57.399Z,0.55
2022-12-29T01:46:35.603Z,0.38
2022-12-29T01:49:05.861Z,0.40
2022-12-29T01:51:36.927Z,0.38
2022-12-29T01:54:09.450Z,0.40
2022-12-29T01:56:36.537Z,0.40
2022-12-29T01:59:12.283Z,0.38
2022-12-29T02:01:38.718Z,0.38
2022-12-29T02:04:05.791Z,0.50
2022-12-29T02:06:44.722Z,0.30
2022-12-29T02:09:11.162Z,0.30
2022-12-29T02:11:39.604Z,0.60
2022-12-29T02:14:11.163Z,0.30
2022-12-29T02:17:03.597Z,0.38
2022-12-29T02:20:12.576Z,0.28
2022-12-29T02:22:47.844Z,0.20
2022-12-29T02:25:56.070Z,0.30
2022-12-29T02:28:44.333Z,0.30
2022-12-29T02:31:31.610Z,0.30
2022-12-29T02:34:16.799Z,0.30
2022-12-29T02:37:06.313Z,0.20
2022-12-29T02:40:12.291Z,0.40
2022-12-29T02:43:01.087Z,0.50
2022-12-29T02:45:36.006Z,0.43
2022-12-29T02:48:02.402Z,0.30
2022-12-29T02:50:41.235Z,0.30
2022-12-29T02:53:12.975Z,0.50
2022-12-29T02:55:39.722Z,0.32
2022-12-29T02:58:19.705Z,0.35
2022-12-29T03:01:03.496Z,0.43
2022-12-29T03:03:45.816Z,0.40
2022-12-29T03:06:39.588Z,0.30
2022-12-29T03:09:18.347Z,0.30
2022-12-29T03:12:25.097Z,0.40
2022-12-29T03:15:23.372Z,0.40
2022-12-29T03:20:27.907Z,0.45
2022-12-29T03:23:01.882Z,0.50
2022-12-29T03:25:36.505Z,0.40
2022-12-29T03:28:09.285Z,0.50
2022-12-29T03:30:38.189Z,0.95
2022-12-29T03:33:08.596Z,0.45
2022-12-29T03:35:38.613Z,0.70
2022-12-29T03:38:20.216Z,0.40
2022-12-29T03:40:56.691Z,0.47
2022-12-29T03:43:23.899Z,0.80
2022-12-29T03:45:50.741Z,0.75
2022-12-29T03:48:17.323Z,0.60
2022-12-29T03:50:43.741Z,0.50
2022-12-29T03:53:10.298Z,0.50
2022-12-29T03:55:36.683Z,0.50
2022-12-29T03:58:03.308Z,0.63
2022-12-29T04:00:30.591Z,0.70
2022-12-29T04:02:57.110Z,0.55
2022-12-29T04:05:23.804Z,0.60
2022-12-29T04:07:50.260Z,0.50
2022-12-29T04:10:16.657Z,0.38
2022-12-29T04:12:43.076Z,0.90
2022-12-29T04:15:11.076Z,0.50
2022-12-29T04:17:37.494Z,0.60
2022-12-29T04:20:23.209Z,0.98
2022-12-29T04:22:49.667Z,0.68
2022-12-29T04:25:16.369Z,0.70
2022-12-29T04:27:42.797Z,0.65
2022-12-29T04:30:10.259Z,0.70
2022-12-29T04:32:36.888Z,0.50
2022-12-29T04:35:03.668Z,0.70
2022-12-29T04:37:30.269Z,0.60
2022-12-29T04:39:56.781Z,0.68
2022-12-29T04:42:23.531Z,0.38
2022-12-29T04:44:49.977Z,0.50
2022-12-29T04:47:16.351Z,0.50
2022-12-29T04:49:43.699Z,0.65
2022-12-29T04:52:10.478Z,0.50
2022-12-29T04:54:37.727Z,0.57
2022-12-29T04:57:04.300Z,0.77
2022-12-29T04:59:30.653Z,0.47
2022-12-29T05:01:57.100Z,0.40
2022-12-29T05:04:25.127Z,0.40
2022-12-29T05:06:52.502Z,0.50
2022-12-29T05:09:18.823Z,0.38
2022-12-29T05:11:45.365Z,0.45
2022-12-29T05:14:11.927Z,0.50
2022-12-29T05:16:38.652Z,0.50
2022-12-29T05:19:05.040Z,0.68
2022-12-29T05:21:31.415Z,0.47
2022-12-29T05:23:58.312Z,0.47
2022-12-29T05:26:24.750Z,0.40
2022-12-29T05:28:51.301Z,0.38
2022-12-29T05:31:18.227Z,0.50
2022-12-29T05:33:45.020Z,0.50
2022-12-29T05:36:15.633Z,0.68
2022-12-29T05:38:42.295Z,0.52
2022-12-29T05:41:08.625Z,0.50
2022-12-29T05:43:34.964Z,0.70
2022-12-29T05:46:01.445Z,0.50
2022-12-29T05:48:31.715Z,0.70
2022-12-29T05:51:03.074Z,0.88
2022-12-29T05:53:29.599Z,0.60
2022-12-29T05:55:55.969Z,0.80
2022-12-29T05:58:22.362Z,0.60
2022-12-29T06:00:48.769Z,0.70
2022-12-29T06:03:15.195Z,0.70
2022-12-29T06:05:41.588Z,1.05
2022-12-29T06:08:07.894Z,0.70
2022-12-29T06:10:34.234Z,0.90
2022-12-29T06:13:00.770Z,0.88
2022-12-29T06:15:27.105Z,1.05
2022-12-29T06:17:53.469Z,0.70
2022-12-29T06:20:19.995Z,0.50
2022-12-29T06:22:47.485Z,0.73
2022-12-29T06:25:13.998Z,0.77
2022-12-29T06:27:40.570Z,0.52
2022-12-29T06:30:07.640Z,0.80
2022-12-29T06:32:34.071Z,0.85
2022-12-29T06:35:00.541Z,0.80
2022-12-29T06:37:27.245Z,0.57
2022-12-29T06:39:53.661Z,0.60
2022-12-29T06:42:20.048Z,0.50
2022-12-29T06:44:46.606Z,0.50
2022-12-29T06:47:13.238Z,0.57
2022-12-29T06:49:39.721Z,0.70
2022-12-29T06:52:10.780Z,0.77
2022-12-29T06:54:38.896Z,0.82
2022-12-29T06:57:05.218Z,0.70
2022-12-29T06:59:31.569Z,0.77
2022-12-29T07:01:58.274Z,0.82
2022-12-29T07:04:24.945Z,0.65
2022-12-29T07:06:51.638Z,1.00
2022-12-29T07:09:18.013Z,0.70
2022-12-29T07:11:46.062Z,0.60
2022-12-29T07:14:12.748Z,1.20
2022-12-29T07:16:39.910Z,0.90
2022-12-29T07:19:06.905Z,0.63
2022-12-29T07:21:33.643Z,0.82
2022-12-29T07:24:00.349Z,0.60
2022-12-29T07:26:29.260Z,0.88
2022-12-29T07:29:01.512Z,1.17
2022-12-29T07:31:27.972Z,0.82
2022-12-29T07:33:55.067Z,0.73
2022-12-29T07:36:22.078Z,0.80
2022-12-29T07:38:48.737Z,0.65
2022-12-29T07:41:15.234Z,0.70
2022-12-29T07:43:41.759Z,0.60
2022-12-29T07:46:13.241Z,0.70
2022-12-29T07:48:56.397Z,1.15
2022-12-29T07:51:23.074Z,0.77
2022-12-29T07:53:50.522Z,1.02
2022-12-29T07:56:17.063Z,0.60
2022-12-29T07:58:44.132Z,1.23
2022-12-29T08:01:10.498Z,1.02
2022-12-29T08:03:39.223Z,0.80
2022-12-29T08:06:05.837Z,1.10
2022-12-29T08:08:32.214Z,1.08
2022-12-29T08:10:58.906Z,1.15
2022-12-29T08:13:25.445Z,0.80
2022-12-29T08:15:51.895Z,0.85
2022-12-29T08:18:18.460Z,1.17
2022-12-29T08:20:44.997Z,0.80
2022-12-29T08:23:11.354Z,0.90
2022-12-29T08:25:37.709Z,0.95
2022-12-29T08:28:04.128Z,1.13
2022-12-29T08:30:30.672Z,0.80
2022-12-29T08:32:57.181Z,0.88
2022-12-29T08:35:23.578Z,1.42
2022-12-29T08:37:49.912Z,1.20
2022-12-29T08:40:16.343Z,0.90
2022-12-29T08:42:42.799Z,1.10
2022-12-29T08:45:09.977Z,1.13
2022-12-29T08:47:36.613Z,1.20
2022-12-29T08:50:03.652Z,0.88
2022-12-29T08:52:30.410Z,1.02
2022-12-29T08:54:56.826Z,1.38
2022-12-29T08:57:23.189Z,1.30
2022-12-29T08:59:50.159Z,0.90
2022-12-29T09:02:23.746Z,1.00
2022-12-29T09:04:51.422Z,1.08
2022-12-29T09:07:17.819Z,1.40
2022-12-29T09:09:44.263Z,1.23
2022-12-29T09:12:10.660Z,1.35
2022-12-29T09:14:37.135Z,1.02
2022-12-29T09:17:22.271Z,1.40
2022-12-29T09:19:48.892Z,1.10
2022-12-29T09:22:15.423Z,1.10
2022-12-29T09:24:41.950Z,1.02
2022-12-29T09:27:08.292Z,1.40
2022-12-29T09:29:34.645Z,1.20
2022-12-29T09:32:01.542Z,0.90
2022-12-29T09:34:28.182Z,1.20
2022-12-29T09:36:54.813Z,1.13
2022-12-29T09:39:21.164Z,1.02
2022-12-29T09:42:20.350Z,1.40
2022-12-29T09:44:57.366Z,1.48
2022-12-29T09:47:26.248Z,1.20
2022-12-29T09:49:57.307Z,1.25
2022-12-29T09:52:31.141Z,1.15
2022-12-29T09:55:05.271Z,1.15
2022-12-29T09:57:41.898Z,1.38
2022-12-29T10:00:37.829Z,1.65
2022-12-29T10:03:15.675Z,1.05
2022-12-29T10:05:59.054Z,1.17
2022-12-29T10:08:33.082Z,1.17
2022-12-29T10:11:09.905Z,1.40
2022-12-29T10:14:02.940Z,1.70
2022-12-29T10:17:02.494Z,0.90
2022-12-29T10:20:02.459Z,1.27
2022-12-29T10:22:50.426Z,1.48
2022-12-29T10:25:20.888Z,1.33
2022-12-29T10:27:53.929Z,1.52
2022-12-29T10:30:20.498Z,1.20
2022-12-29T10:32:58.688Z,1.40
2022-12-29T10:35:35.024Z,1.63
2022-12-29T10:38:19.495Z,1.50
2022-12-29T10:40:58.166Z,1.80
2022-12-29T10:43:37.221Z,1.30
2022-12-29T10:46:07.797Z,1.20
2022-12-29T10:48:35.816Z,1.35
2022-12-29T10:51:06.018Z,1.10
2022-12-29T10:53:47.476Z,1.40
2022-12-29T10:56:45.309Z,1.55
2022-12-29T10:59:16.700Z,1.40
2022-12-29T11:01:57.013Z,1.55
2022-12-29T11:04:44.915Z,1.40
2022-12-29T11:07:16.095Z,1.02
2022-12-29T11:09:45.502Z,1.10
2022-12-29T11:12:27.983Z,1.50
2022-12-29T11:15:15.249Z,1.27
2022-12-29T11:17:53.304Z,1.67
2022-12-29T11:20:43.143Z,1.30
2022-12-29T11:23:37.576Z,1.10
2022-12-29T11:26:21.461Z,1.48
2022-12-29T11:29:06.839Z,1.38
2022-12-29T11:31:43.664Z,1.48
2022-12-29T11:34:17.409Z,1.45
2022-12-29T11:36:43.953Z,1.40
2022-12-29T11:39:26.838Z,1.38
2022-12-29T11:41:54.879Z,1.20
2022-12-29T11:44:22.002Z,1.70
2022-12-29T11:46:52.314Z,1.30
2022-12-29T11:49:26.990Z,1.40
2022-12-29T11:51:58.455Z,1.65
2022-12-29T11:54:28.560Z,1.40
2022-12-29T11:56:56.148Z,1.50
2022-12-29T11:59:28.365Z,1.63
2022-12-29T12:01:55.678Z,1.30
2022-12-29T12:04:25.918Z,1.40
2022-12-29T12:07:02.375Z,1.58
2022-12-29T12:09:51.316Z,1.30
2022-12-29T12:12:36.950Z,1.67
2022-12-29T12:15:04.664Z,1.50
2022-12-29T12:17:38.282Z,1.73
2022-12-29T12:20:16.903Z,1.20
2022-12-29T12:22:53.010Z,1.33
2022-12-29T12:25:26.877Z,1.63
2022-12-29T12:28:20.782Z,1.50
2022-12-29T12:30:53.899Z,1.35
2022-12-29T12:33:27.032Z,1.50
2022-12-29T12:36:18.402Z,1.77
2022-12-29T12:39:10.755Z,1.75
2022-12-29T12:41:55.412Z,2.10
2022-12-29T12:44:32.869Z,1.95
2022-12-29T12:47:19.646Z,1.52
2022-12-29T12:50:13.349Z,1.33
2022-12-29T12:53:02.718Z,1.00
2022-12-29T12:55:50.858Z,1.77
2022-12-29T12:58:32.102Z,1.20
2022-12-29T13:01:15.444Z,1.50
2022-12-29T13:04:00.449Z,1.73
2022-12-29T13:06:50.448Z,1.65
2022-12-29T13:09:34.591Z,1.95
2022-12-29T13:12:30.722Z,1.52
2022-12-29T13:15:09.966Z,2.05
2022-12-29T13:17:53.643Z,1.45
2022-12-29T13:20:23.449Z,1.65
2022-12-29T13:23:19.300Z,1.50
2022-12-29T13:25:57.125Z,1.35
2022-12-29T13:28:48.864Z,1.25
2022-12-29T13:31:47.450Z,1.25
2022-12-29T13:34:47.828Z,1.70
2022-12-29T13:37:19.136Z,1.63
2022-12-29T13:40:04.359Z,1.60
2022-12-29T13:42:31.243Z,1.40
2022-12-29T13:45:06.203Z,1.35
2022-12-29T13:47:41.931Z,1.90
2022-12-29T13:50:36.675Z,1.23
2022-12-29T13:53:03.032Z,2.35
2022-12-29T13:55:37.301Z,1.80
2022-12-29T13:58:26.369Z,1.90
2022-12-29T14:01:02.030Z,1.75
2022-12-29T14:03:49.065Z,1.73
2022-12-29T14:06:22.006Z,1.42
2022-12-29T14:08:49.655Z,1.75
2022-12-29T14:11:18.878Z,1.52
2022-12-29T14:13:47.959Z,2.20
2022-12-29T14:16:30.534Z,1.50
2022-12-29T14:19:05.805Z,1.83
2022-12-29T14:21:34.433Z,2.13
2022-12-29T14:26:46.413Z,1.38
2022-12-29T14:29:42.941Z,1.60
2022-12-29T14:32:23.321Z,1.10
2022-12-29T14:34:52.637Z,1.55
2022-12-29T14:37:39.943Z,1.55
2022-12-29T14:40:39.833Z,1.73
2022-12-29T14:43:14.413Z,1.95
2022-12-29T14:45:43.735Z,1.45
2022-12-29T14:48:25.766Z,1.65
2022-12-29T14:50:52.417Z,1.70
2022-12-29T14:53:51.831Z,1.48
2022-12-29T14:56:21.148Z,1.42
2022-12-29T14:58:53.114Z,2.20
2022-12-29T15:01:44.190Z,1.45
2022-12-29T15:04:21.698Z,1.73
2022-12-29T15:06:50.695Z,1.48
2022-12-29T15:09:37.191Z,1.38
2022-12-29T15:12:31.803Z,1.42
2022-12-29T15:15:01.648Z,1.52
2022-12-29T15:17:33.983Z,1.88
2022-12-29T15:20:14.813Z,1.58
2022-12-29T15:22:53.623Z,1.63
2022-12-29T15:25:20.131Z,1.80
2022-12-29T15:27:52.627Z,1.73
2022-12-29T15:30:19.659Z,5.28
2022-12-29T15:32:48.292Z,2.15
2022-12-29T15:35:28.835Z,1.55
2022-12-29T15:37:55.432Z,1.45
2022-12-29T15:40:35.369Z,1.58
2022-12-29T15:43:47.024Z,1.17
2022-12-29T15:46:14.671Z,1.60
2022-12-29T15:48:41.514Z,1.50
2022-12-29T15:51:29.567Z,2.10
2022-12-29T15:53:56.275Z,1.48
2022-12-29T15:56:22.969Z,1.58
2022-12-29T15:58:52.411Z,1.75
2022-12-29T16:01:24.684Z,1.38
2022-12-29T16:03:52.385Z,0.90
2022-12-29T16:06:32.804Z,1.73
2022-12-29T16:09:32.846Z,1.77
2022-12-29T16:12:06.095Z,1.40
2022-12-29T16:14:44.639Z,1.23
2022-12-29T16:19:42.246Z,1.50
2022-12-29T16:22:35.553Z,1.27
2022-12-29T16:25:15.628Z,2.25
2022-12-29T16:27:43.807Z,4.95
2022-12-29T16:30:32.818Z,24.85
2022-12-29T16:33:03.135Z,6.55
2022-12-29T16:35:47.549Z,2.83
2022-12-29T16:38:22.597Z,1.88
2022-12-29T16:41:07.266Z,1.98
2022-12-29T16:43:38.516Z,1.95
2022-12-29T16:46:22.589Z,1.55
2022-12-29T16:48:53.917Z,2.10
2022-12-29T16:51:30.892Z,2.10
2022-12-29T16:53:58.032Z,1.92
2022-12-29T16:56:28.541Z,1.60
2022-12-29T16:59:03.481Z,1.90
2022-12-29T17:01:30.253Z,2.17
2022-12-29T17:04:05.467Z,1.50
2022-12-29T17:06:33.268Z,2.25
2022-12-29T17:08:59.935Z,3.95
2022-12-29T17:11:58.523Z,2.28
2022-12-29T17:14:37.124Z,4.10
2022-12-29T17:17:14.908Z,3.08
2022-12-29T17:19:45.283Z,2.58
2022-12-29T17:22:22.568Z,2.13
2022-12-29T17:24:49.013Z,1.83
2022-12-29T17:27:31.790Z,2.03
2022-12-29T17:30:02.159Z,1.52
2022-12-29T17:32:30.685Z,2.65
2022-12-29T17:34:57.031Z,2.90
2022-12-29T17:37:31.427Z,2.65
2022-12-29T17:39:57.934Z,3.33
2022-12-29T17:42:24.865Z,2.90
2022-12-29T17:44:51.416Z,2.55
2022-12-29T17:47:17.987Z,2.42
2022-12-29T17:49:46.284Z,1.98
2022-12-29T17:52:14.663Z,2.47
2022-12-29T17:54:51.316Z,1.73
2022-12-29T17:57:20.539Z,1.65
2022-12-29T17:59:47.244Z,1.10
2022-12-29T18:02:19.811Z,0.82
2022-12-29T18:04:46.461Z,0.60
2022-12-29T18:07:13.042Z,0.90
2022-12-29T18:09:39.411Z,1.15
2022-12-29T18:12:09.339Z,1.33
2022-12-29T18:14:35.706Z,0.95
2022-12-29T18:17:02.036Z,1.13
2022-12-29T18:19:33.940Z,1.60
2022-12-29T18:22:02.543Z,1.83
2022-12-29T18:24:28.949Z,1.70
2022-12-29T18:26:55.359Z,1.90
2022-12-29T18:29:21.845Z,1.85
2022-12-29T18:31:48.384Z,1.30
2022-12-29T18:34:17.005Z,1.60
2022-12-29T18:39:11.580Z,1.52
2022-12-29T18:41:37.909Z,1.70
2022-12-29T18:44:04.503Z,1.60
2022-12-29T18:46:30.870Z,6.30
2022-12-29T18:48:57.396Z,8.07
2022-12-29T18:51:25.274Z,5.57
2022-12-29T18:53:55.549Z,8.85
2022-12-29T18:56:23.303Z,5.00
2022-12-29T18:58:50.255Z,5.70
2022-12-29T19:01:25.391Z,4.03
2022-12-29T19:03:53.150Z,3.08
2022-12-29T19:06:21.103Z,2.70
2022-12-29T19:08:47.647Z,2.03
2022-12-29T19:11:17.804Z,3.57
2022-12-29T19:13:44.260Z,2.47
2022-12-29T19:16:19.426Z,2.72
2022-12-29T19:18:53.378Z,3.33
2022-12-29T19:21:30.382Z,2.80
2022-12-29T19:23:56.689Z,2.92
2022-12-29T19:26:32.578Z,2.95
2022-12-29T19:28:59.943Z,2.90
2022-12-29T19:31:26.589Z,2.80
2022-12-29T19:33:53.485Z,2.72
2022-12-29T19:36:22.056Z,2.72
2022-12-29T19:41:16.152Z,2.30
2022-12-29T19:43:42.795Z,2.95
2022-12-29T19:46:11.576Z,2.70
2022-12-29T19:48:38.051Z,2.83
2022-12-29T19:51:13.446Z,2.25
2022-12-29T19:53:41.110Z,3.13
2022-12-29T19:56:11.284Z,2.80
2022-12-29T19:58:43.875Z,2.95
2022-12-29T20:01:16.253Z,3.33
2022-12-29T20:03:44.409Z,2.92
2022-12-29T20:06:11.588Z,2.67
2022-12-29T20:08:38.897Z,3.50
2022-12-29T20:11:17.514Z,2.83
2022-12-29T20:13:44.695Z,3.45
2022-12-29T20:16:16.693Z,3.22
2022-12-29T20:18:44.075Z,3.75
2022-12-29T20:21:23.855Z,2.90
2022-12-29T20:23:52.032Z,3.00
2022-12-29T20:26:27.783Z,3.28
2022-12-29T20:28:54.776Z,2.80
2022-12-29T20:31:27.710Z,2.90
2022-12-29T20:33:54.453Z,3.35
2022-12-29T20:36:26.783Z,2.90
2022-12-29T20:38:54.822Z,3.83
2022-12-29T20:41:22.850Z,3.03
2022-12-29T20:43:50.598Z,2.42
2022-12-29T20:46:20.895Z,2.50
2022-12-29T20:48:49.333Z,2.80
2022-12-29T20:51:16.418Z,2.72
2022-12-29T20:53:42.778Z,2.92
2022-12-29T20:56:15.964Z,3.08
2022-12-29T20:59:17.145Z,3.20
2022-12-29T21:01:29.041Z,2.65
2022-12-29T21:03:55.752Z,3.20
2022-12-29T21:06:22.930Z,3.15
2022-12-29T21:08:57.497Z,2.80
2022-12-29T21:11:24.416Z,2.80
2022-12-29T21:13:50.755Z,2.58
2022-12-29T21:16:20.887Z,2.97
2022-12-29T21:18:48.881Z,3.00
2022-12-29T21:21:21.699Z,2.50
2022-12-29T21:23:48.496Z,2.40
2022-12-29T21:26:18.541Z,2.65
2022-12-29T21:28:46.163Z,3.58
2022-12-29T21:31:28.386Z,2.57
2022-12-29T21:33:56.081Z,2.47
2022-12-29T21:36:22.675Z,2.53
2022-12-29T21:38:50.875Z,2.50
2022-12-29T21:41:18.308Z,2.40
2022-12-29T21:44:08.761Z,2.08
2022-12-29T21:46:37.310Z,2.63
2022-12-29T21:51:49.913Z,2.97
2022-12-29T21:54:41.532Z,2.35
2022-12-29T21:57:09.189Z,3.50
2022-12-29T21:59:54.385Z,2.27
2022-12-29T22:02:44.103Z,2.47
2022-12-29T22:05:33.714Z,2.40
2022-12-29T22:08:20.770Z,2.45
2022-12-29T22:11:06.977Z,2.72
2022-12-29T22:13:35.685Z,2.13
2022-12-29T22:16:08.604Z,3.30
2022-12-29T22:18:35.112Z,2.35
2022-12-29T22:21:10.311Z,2.75
2022-12-29T22:23:38.117Z,2.50
2022-12-29T22:26:09.041Z,2.47
2022-12-29T22:28:37.979Z,2.88
2022-12-29T22:31:21.614Z,2.63
2022-12-29T22:33:48.106Z,2.60
2022-12-29T22:36:14.620Z,2.88
2022-12-29T22:38:41.004Z,2.88
2022-12-29T22:41:07.340Z,2.78
2022-12-29T22:43:33.890Z,2.70
2022-12-29T22:46:04.957Z,2.55
2022-12-29T22:48:33.291Z,3.13
2022-12-29T22:51:00.239Z,2.13
2022-12-29T22:53:27.085Z,2.67
2022-12-29T22:56:11.037Z,3.22
2022-12-29T22:58:45.771Z,2.63
2022-12-29T23:01:14.996Z,2.47
2022-12-29T23:03:42.162Z,4.32
2022-12-29T23:06:12.363Z,3.30
2022-12-29T23:08:39.526Z,2.80
2022-12-29T23:11:08.792Z,3.00
2022-12-29T23:13:35.711Z,3.03
2022-12-29T23:16:02.290Z,2.50
2022-12-29T23:18:28.842Z,3.38
2022-12-29T23:20:55.358Z,3.78
2022-12-29T23:23:48.476Z,2.63
2022-12-29T23:26:16.327Z,3.38
2022-12-29T23:28:43.211Z,2.65
2022-12-29T23:31:10.301Z,3.20
2022-12-29T23:33:36.930Z,2.97
2022-12-29T23:36:04.079Z,3.33
2022-12-29T23:38:30.733Z,2.60
2022-12-29T23:40:57.363Z,2.67
2022-12-29T23:43:23.960Z,2.75
2022-12-29T23:45:51.297Z,2.53
2022-12-29T23:48:18.200Z,2.55
2022-12-29T23:50:44.616Z,3.00
2022-12-29T23:53:11.858Z,3.30
2022-12-29T23:55:42.777Z,2.20
2022-12-29T23:58:09.737Z,3.55
